Arcata, CA (95518)

1:01 AM PDT on May 26, 2017 (GMT -0700)
The Bottoms | | Change Station

Elev 20 ft 40.87 °N, 124.10 °W | Updated 19 seconds ago

Mostly Cloudy
Mostly Cloudy
51.4 °F
Feels Like 51.4 °F
N
5.0
Wind Variable Wind from ESE

Today
High -- | Low -- °F
--% Chance of Precip.
Yesterday
High -- | Low -- °F
Precip. -- in
Pressure 29.90 in
Visibility 9.0 miles
Clouds Overcast 1200 ft
Dew Point 48 °F
Humidity 90%
Rainfall 0.00 in
Snow Depth Not available.
5:49 AM 8:37 PM
New Moon, 0% visible
METAR KACV 260753Z AUTO 16006KT 9SM OVC012 11/09 A2988 RMK AO2 SLP124 T01060089 401330050
Pressure 29.90 in
Visibility 9.0 miles
Clouds Overcast 1200 ft
Dew Point 48 °F
Humidity 90%
Rainfall 0.00 in
Snow Depth Not available.
5:49 AM 8:37 PM
New Moon, 0% visible
METAR KACV 260753Z AUTO 16006KT 9SM OVC012 11/09 A2988 RMK AO2 SLP124 T01060089 401330050

Get Severe Weather Alerts

Thanks for signing up!

Be on the lookout for a verification email in your inbox.

You'll start receiving the daily forecast at 6 AM.

×

10-Day Weather Forecast

Almanac

Astronomy

May. 26, 2017 Rise Set
Actual Time
Civil Twilight
Nautical Twilight
Astronomical Twilight
Moon
Length of Visible Light
Length of Day
Tomorrow will be .
, % of the Moon is Illuminated

Today's Extremes

State Highs State Lows

Community

WunderPhotos

Category 6

Welcome to Category 6. This is the collective home for Weather Underground's featured writeups by Dr. Jeff Masters (right), Bob Henson (left), Chris Burt, and other regular contributors.

Nearby

Air Quality

  Air Quality AQ Index Pollutant
Not available.

Snow Depth

Station Depth Elevation

Earthquake Activity

City Distance Mag. Time & Date
Minimum magnitude displayed is 2.5.

Coastal Water Temperatures

Place Temperature

Stations

Nearby Weather Stations

Station Location Temp. Windchill Dew Point Humidity Wind Precip. Elev Updated Type
                   

Watches & Warnings

There are currently no watches in effect.